createdAt,value
2023-01-26T00:00:07.856Z,3.76
2023-01-26T00:01:07.724Z,4.08
2023-01-26T00:02:07.741Z,4.48
2023-01-26T00:03:07.757Z,4.26
2023-01-26T00:04:07.796Z,3.94
2023-01-26T00:05:07.777Z,3.76
2023-01-26T00:06:07.787Z,3.40
2023-01-26T00:07:08.549Z,4.27
2023-01-26T00:08:07.790Z,4.36
2023-01-26T00:09:08.558Z,4.51
2023-01-26T00:10:07.941Z,4.07
2023-01-26T00:11:07.813Z,4.56
2023-01-26T00:12:07.818Z,4.39
2023-01-26T00:13:07.836Z,4.44
2023-01-26T00:14:07.832Z,4.41
2023-01-26T00:15:07.840Z,4.53
2023-01-26T00:16:07.903Z,4.10
2023-01-26T00:17:07.844Z,4.16
2023-01-26T00:18:07.871Z,4.66
2023-01-26T00:19:07.872Z,4.46
2023-01-26T00:20:07.935Z,4.51
2023-01-26T00:21:07.887Z,3.92
2023-01-26T00:22:07.887Z,4.57
2023-01-26T00:23:07.906Z,4.32
2023-01-26T00:24:07.956Z,4.45
2023-01-26T00:25:08.569Z,4.19
2023-01-26T00:26:07.927Z,3.85
2023-01-26T00:27:07.944Z,3.76
2023-01-26T00:28:07.955Z,4.31
2023-01-26T00:29:07.957Z,3.99
2023-01-26T00:30:08.006Z,4.28
2023-01-26T00:31:08.045Z,4.56
2023-01-26T00:32:07.987Z,4.21
2023-01-26T00:33:08.003Z,3.88
2023-01-26T00:34:08.003Z,4.38
2023-01-26T00:35:08.018Z,4.03
2023-01-26T00:36:08.031Z,4.31
2023-01-26T00:37:08.039Z,4.60
2023-01-26T00:38:08.062Z,4.45
2023-01-26T00:39:08.078Z,3.75
2023-01-26T00:40:08.263Z,3.84
2023-01-26T00:41:08.107Z,3.99
2023-01-26T00:42:08.119Z,4.57
2023-01-26T00:43:08.119Z,4.38
2023-01-26T00:44:08.141Z,4.13
2023-01-26T00:45:08.130Z,4.09
2023-01-26T00:46:08.132Z,3.87
2023-01-26T00:47:08.163Z,4.34
2023-01-26T00:48:08.168Z,4.08
2023-01-26T00:49:08.253Z,3.91
2023-01-26T00:50:08.310Z,3.70
2023-01-26T00:51:08.173Z,4.28
2023-01-26T00:52:08.184Z,4.31
2023-01-26T00:53:08.194Z,3.85
2023-01-26T00:54:08.205Z,4.02
2023-01-26T00:55:08.214Z,3.65
2023-01-26T00:56:08.214Z,4.58
2023-01-26T00:57:08.227Z,3.95
2023-01-26T00:58:08.237Z,4.68
2023-01-26T00:59:08.231Z,4.58
2023-01-26T01:00:08.455Z,4.15
2023-01-26T01:01:08.346Z,3.83
2023-01-26T01:02:08.344Z,3.96
2023-01-26T01:03:08.311Z,4.30
2023-01-26T01:04:08.295Z,3.86
2023-01-26T01:05:08.283Z,3.73
2023-01-26T01:06:09.070Z,4.06
2023-01-26T01:07:08.294Z,3.93
2023-01-26T01:08:08.304Z,4.23
2023-01-26T01:09:08.307Z,4.05
2023-01-26T01:10:08.632Z,4.00
2023-01-26T01:11:08.328Z,4.12
2023-01-26T01:12:08.329Z,3.83
2023-01-26T01:13:08.357Z,4.08
2023-01-26T01:14:08.358Z,4.04
2023-01-26T01:15:08.359Z,3.88
2023-01-26T01:16:08.420Z,3.81
2023-01-26T01:17:08.380Z,3.65
2023-01-26T01:18:08.376Z,3.99
2023-01-26T01:19:08.466Z,4.14
2023-01-26T01:20:08.596Z,4.02
2023-01-26T01:21:08.396Z,4.20
2023-01-26T01:22:08.404Z,3.99
2023-01-26T01:23:08.399Z,3.97
2023-01-26T01:24:08.477Z,4.41
2023-01-26T01:25:08.429Z,3.99
2023-01-26T01:26:08.415Z,4.71
2023-01-26T01:27:08.419Z,3.91
2023-01-26T01:28:08.418Z,4.51
2023-01-26T01:29:08.436Z,4.07
2023-01-26T01:30:08.664Z,4.36
2023-01-26T01:31:08.566Z,4.06
2023-01-26T01:32:08.451Z,3.95
2023-01-26T01:33:08.470Z,3.33
2023-01-26T01:34:08.520Z,4.51
2023-01-26T01:35:08.534Z,4.00
2023-01-26T01:36:08.466Z,4.44
2023-01-26T01:37:08.477Z,4.03
2023-01-26T01:38:08.485Z,3.73
2023-01-26T01:39:08.487Z,4.54
2023-01-26T01:40:08.688Z,3.71
2023-01-26T01:41:08.495Z,3.75
2023-01-26T01:42:08.520Z,3.79
2023-01-26T01:43:08.486Z,3.85
2023-01-26T01:44:08.497Z,4.23
2023-01-26T01:45:08.497Z,3.89
2023-01-26T01:46:08.516Z,4.10
2023-01-26T01:47:08.525Z,4.13
2023-01-26T04:19:10.189Z,4.00
2023-01-26T04:20:10.549Z,3.19
2023-01-26T04:21:10.272Z,3.25
2023-01-26T04:22:11.148Z,3.21
2023-01-26T04:23:10.312Z,3.96
2023-01-26T04:24:10.373Z,3.52
2023-01-26T04:25:10.377Z,3.42
2023-01-26T04:26:10.438Z,3.94
2023-01-26T04:27:10.498Z,3.72
2023-01-26T04:28:10.577Z,3.07
2023-01-26T04:29:10.619Z,3.48
2023-01-26T04:30:11.091Z,3.20
2023-01-26T04:35:11.644Z,2.97
2023-01-26T04:43:12.155Z,3.38
2023-01-26T04:44:11.478Z,3.15
2023-01-26T04:45:11.548Z,3.59
2023-01-26T04:46:11.620Z,3.47
2023-01-26T04:47:11.662Z,3.32
2023-01-26T04:48:11.712Z,3.53
2023-01-26T04:49:11.769Z,3.53
2023-01-26T04:50:12.157Z,3.94
2023-01-26T04:51:11.881Z,3.39
2023-01-26T04:52:11.926Z,3.14
2023-01-26T04:53:11.979Z,3.20
2023-01-26T04:54:12.028Z,3.33
2023-01-26T04:55:12.083Z,3.24
2023-01-26T04:56:12.145Z,3.68
2023-01-26T04:57:12.252Z,3.23
2023-01-26T04:58:12.244Z,3.01
2023-01-26T04:59:12.342Z,3.52
2023-01-26T05:00:12.716Z,3.65
2023-01-26T05:01:12.450Z,3.33
2023-01-26T05:02:12.484Z,3.33
2023-01-26T05:03:12.670Z,3.14
2023-01-26T05:04:12.644Z,3.37
2023-01-26T05:05:12.644Z,3.45
2023-01-26T05:06:12.703Z,3.67
2023-01-26T05:07:12.773Z,3.32
2023-01-26T05:08:12.802Z,3.54
2023-01-26T05:09:12.863Z,3.62
2023-01-26T05:10:15.603Z,3.13
2023-01-26T05:11:12.917Z,3.07
2023-01-26T05:12:12.921Z,3.25
2023-01-26T05:13:12.918Z,2.98
2023-01-26T05:14:12.894Z,3.38
2023-01-26T05:15:13.680Z,3.23
2023-01-26T05:16:12.923Z,3.01
2023-01-26T05:17:12.928Z,2.97
2023-01-26T05:18:12.883Z,3.48
2023-01-26T05:19:12.865Z,3.51
2023-01-26T05:20:13.148Z,3.44
2023-01-26T05:21:12.849Z,3.53
2023-01-26T05:22:12.904Z,3.39
2023-01-26T05:23:13.175Z,3.60
2023-01-26T05:24:12.853Z,3.66
2023-01-26T05:25:12.816Z,3.28
2023-01-26T05:26:12.824Z,2.95
2023-01-26T05:27:12.806Z,2.97
2023-01-26T05:28:12.810Z,2.97
2023-01-26T05:29:13.677Z,2.89
2023-01-26T05:30:14.746Z,3.13
2023-01-26T05:31:12.783Z,3.77
2023-01-26T05:32:12.854Z,3.46
2023-01-26T05:33:12.800Z,3.63
2023-01-26T05:34:12.770Z,3.26
2023-01-26T05:35:12.769Z,3.78
2023-01-26T05:36:12.750Z,3.21
2023-01-26T05:37:14.790Z,3.34
2023-01-26T05:38:12.938Z,3.51
2023-01-26T05:39:12.892Z,3.26
2023-01-26T05:40:13.216Z,3.50
2023-01-26T05:41:12.959Z,3.49
2023-01-26T05:42:12.980Z,3.15
2023-01-26T05:43:12.994Z,2.79
2023-01-26T05:44:13.011Z,3.45
2023-01-26T05:45:13.004Z,3.02
2023-01-26T05:46:13.124Z,3.49
2023-01-26T05:47:13.076Z,3.55
2023-01-26T05:48:13.061Z,3.60
2023-01-26T05:49:13.064Z,3.14
2023-01-26T05:50:13.421Z,3.70
2023-01-26T05:51:13.088Z,3.30
2023-01-26T05:52:13.104Z,3.37
2023-01-26T05:53:13.072Z,2.83
2023-01-26T05:54:13.088Z,3.47
2023-01-26T05:55:13.088Z,3.50
2023-01-26T05:56:13.089Z,3.66
2023-01-26T05:57:13.075Z,2.88
2023-01-26T05:58:13.090Z,3.41
2023-01-26T05:59:13.074Z,3.69
2023-01-26T06:00:13.308Z,3.47
2023-01-26T06:01:13.084Z,3.27
2023-01-26T06:02:13.141Z,3.60
2023-01-26T06:03:13.106Z,2.98
2023-01-26T06:04:13.131Z,3.59
2023-01-26T06:05:13.101Z,3.42
2023-01-26T06:06:13.096Z,3.48
2023-01-26T06:07:13.094Z,3.44
2023-01-26T06:08:13.095Z,3.89
2023-01-26T06:09:13.093Z,3.85
2023-01-26T06:10:13.406Z,3.25
2023-01-26T06:11:13.097Z,3.18
2023-01-26T06:12:13.085Z,3.30
2023-01-26T06:13:13.088Z,2.94
2023-01-26T06:14:13.097Z,3.35
2023-01-26T06:15:13.108Z,3.37
2023-01-26T06:16:13.108Z,3.47
2023-01-26T06:17:13.144Z,3.20
2023-01-26T06:18:13.142Z,3.83
2023-01-26T06:19:13.127Z,3.40
2023-01-26T06:20:13.336Z,3.59
2023-01-26T06:21:13.127Z,3.35
2023-01-26T06:22:13.142Z,3.20
2023-01-26T06:23:13.138Z,3.11
2023-01-26T06:24:13.160Z,3.12
2023-01-26T06:25:13.148Z,3.64
2023-01-26T06:26:13.142Z,3.29
2023-01-26T06:27:13.127Z,3.61
2023-01-26T06:28:13.137Z,3.27
2023-01-26T06:29:13.128Z,3.97
2023-01-26T06:30:13.482Z,3.79
2023-01-26T06:31:13.222Z,3.77
2023-01-26T06:32:13.180Z,3.24
2023-01-26T06:33:13.223Z,3.22
2023-01-26T06:34:13.290Z,4.12
2023-01-26T06:35:14.195Z,3.52
2023-01-26T06:36:13.410Z,3.64
2023-01-26T06:37:13.446Z,3.65
2023-01-26T06:38:13.576Z,3.87
2023-01-26T06:39:13.544Z,3.93
2023-01-26T06:40:13.687Z,3.41
2023-01-26T06:41:13.585Z,2.97
2023-01-26T06:42:13.609Z,3.37
2023-01-26T06:43:13.652Z,3.80
2023-01-26T06:44:13.655Z,3.92
2023-01-26T06:45:13.667Z,3.21
2023-01-26T06:46:13.780Z,3.89
2023-01-26T06:47:13.712Z,3.46
2023-01-26T06:48:14.698Z,4.07
2023-01-26T06:49:13.766Z,3.42
2023-01-26T06:50:13.908Z,3.76
2023-01-26T06:51:13.762Z,3.26
2023-01-26T06:52:13.798Z,4.18
2023-01-26T06:53:13.802Z,3.84
2023-01-26T06:54:13.801Z,3.84
2023-01-26T06:55:13.778Z,3.92
2023-01-26T06:56:13.783Z,3.88
2023-01-26T06:57:13.775Z,4.07
2023-01-26T06:58:14.733Z,3.85
2023-01-26T06:59:13.819Z,3.82
2023-01-26T07:00:13.907Z,3.16
2023-01-26T07:01:13.887Z,3.79
2023-01-26T07:02:13.926Z,3.41
2023-01-26T07:03:13.916Z,4.25
2023-01-26T07:04:14.042Z,3.61
2023-01-26T07:05:14.026Z,3.40
2023-01-26T07:06:14.094Z,2.92
2023-01-26T07:07:15.140Z,3.81
2023-01-26T07:08:14.192Z,3.72
2023-01-26T07:09:14.423Z,3.09
2023-01-26T07:10:14.326Z,3.94
2023-01-26T07:11:14.381Z,4.02
2023-01-26T07:12:14.444Z,3.68
2023-01-26T07:13:14.500Z,3.54
2023-01-26T07:14:14.535Z,3.80
2023-01-26T07:15:14.576Z,4.00
2023-01-26T07:16:14.629Z,4.01
2023-01-26T07:17:14.654Z,9.87
2023-01-26T07:18:14.711Z,11.00
2023-01-26T07:19:14.715Z,11.89
2023-01-26T07:20:14.725Z,11.39
2023-01-26T07:21:14.770Z,10.18
2023-01-26T07:22:14.836Z,12.86
2023-01-26T07:23:14.834Z,12.02
2023-01-26T07:24:14.934Z,10.62
2023-01-26T07:25:14.923Z,10.65
2023-01-26T07:26:14.932Z,11.71
2023-01-26T07:27:14.952Z,11.85
2023-01-26T07:28:15.014Z,10.90
2023-01-26T07:29:15.061Z,11.44
2023-01-26T07:30:15.154Z,12.27
2023-01-26T07:31:15.176Z,11.38
2023-01-26T07:32:15.119Z,11.57
2023-01-26T07:33:15.130Z,10.69
2023-01-26T07:34:15.147Z,11.11
2023-01-26T07:35:15.197Z,10.28
2023-01-26T07:36:15.262Z,10.90
2023-01-26T07:37:15.308Z,10.51
2023-01-26T07:38:15.335Z,10.89
2023-01-26T07:39:15.364Z,10.77
2023-01-26T07:40:15.379Z,10.02
2023-01-26T07:41:16.221Z,10.96
2023-01-26T07:42:15.395Z,9.84
2023-01-26T07:43:15.400Z,10.18
2023-01-26T07:44:15.431Z,10.63
2023-01-26T07:45:15.471Z,10.72
2023-01-26T07:46:15.539Z,10.45
2023-01-26T07:47:15.589Z,10.16
2023-01-26T07:48:15.654Z,10.28
2023-01-26T07:49:15.707Z,10.65
2023-01-26T07:50:15.773Z,10.41
2023-01-26T07:51:15.798Z,14.36
2023-01-26T07:52:16.638Z,16.13
2023-01-26T07:53:15.863Z,14.51
2023-01-26T07:54:15.903Z,14.80
2023-01-26T07:55:15.988Z,14.23
2023-01-26T07:56:15.954Z,13.80
2023-01-26T07:57:16.010Z,13.01
2023-01-26T07:58:16.040Z,12.04
2023-01-26T07:59:16.049Z,12.63
2023-01-26T08:00:16.106Z,12.47
2023-01-26T08:01:16.165Z,12.75
2023-01-26T08:02:16.173Z,11.65
2023-01-26T08:03:16.161Z,12.27
2023-01-26T08:04:16.211Z,11.66
2023-01-26T08:05:16.273Z,10.90
2023-01-26T08:06:16.281Z,11.59
2023-01-26T08:13:23.534Z,11.15
2023-01-26T08:15:16.495Z,10.62
2023-01-26T08:16:16.541Z,11.48
2023-01-26T08:17:16.469Z,13.67
2023-01-26T08:20:16.451Z,11.85
2023-01-26T08:21:16.447Z,11.79
2023-01-26T08:22:16.434Z,12.11
2023-01-26T08:23:16.426Z,11.20
2023-01-26T08:24:16.592Z,11.87
2023-01-26T08:25:16.436Z,10.57
2023-01-26T08:26:16.497Z,11.10
2023-01-26T08:27:16.481Z,11.18
2023-01-26T08:28:16.508Z,10.60
2023-01-26T08:29:16.521Z,11.07
2023-01-26T08:30:16.546Z,10.06
2023-01-26T08:31:16.675Z,10.23
2023-01-26T08:32:16.579Z,9.99
2023-01-26T08:33:16.607Z,10.80
2023-01-26T08:34:16.562Z,10.21
2023-01-26T08:35:16.599Z,10.70
2023-01-26T08:36:16.628Z,10.95
2023-01-26T08:37:16.675Z,9.33
2023-01-26T08:38:16.716Z,9.26
2023-01-26T08:39:16.776Z,9.43
2023-01-26T08:40:16.845Z,8.68
2023-01-26T08:41:16.893Z,9.58
2023-01-26T08:42:16.941Z,9.89
2023-01-26T08:43:16.969Z,9.97
2023-01-26T08:44:16.998Z,9.32
2023-01-26T08:45:17.050Z,9.13
2023-01-26T08:46:17.127Z,9.48
2023-01-26T08:47:17.098Z,9.20
2023-01-26T08:48:17.142Z,9.42
2023-01-26T08:49:17.141Z,8.65
2023-01-26T08:50:17.165Z,9.01
2023-01-26T08:51:17.204Z,9.11
2023-01-26T08:52:17.235Z,9.19
2023-01-26T08:53:17.252Z,9.06
2023-01-26T08:54:17.283Z,8.69
2023-01-26T08:55:17.331Z,9.38
2023-01-26T08:56:17.337Z,8.85
2023-01-26T08:57:17.393Z,8.23
2023-01-26T08:58:17.418Z,7.88
2023-01-26T08:59:17.446Z,8.73
2023-01-26T09:00:17.466Z,8.38
2023-01-26T09:01:17.631Z,8.94
2023-01-26T09:02:17.604Z,9.57
2023-01-26T09:03:17.778Z,8.78
2023-01-26T09:04:17.628Z,8.59
2023-01-26T09:05:17.651Z,8.98
2023-01-26T09:06:17.643Z,7.71
2023-01-26T09:07:17.679Z,8.29
2023-01-26T09:08:17.728Z,8.47
2023-01-26T09:09:17.789Z,8.91
2023-01-26T09:10:17.804Z,8.24
2023-01-26T09:11:17.816Z,7.08
2023-01-26T09:12:17.838Z,8.81
2023-01-26T09:13:17.901Z,8.43
2023-01-26T09:14:17.920Z,10.67
2023-01-26T09:15:17.954Z,10.44
2023-01-26T09:16:18.017Z,9.57
2023-01-26T09:17:18.079Z,9.65
2023-01-26T09:18:18.108Z,10.39
2023-01-26T09:19:18.132Z,10.44
2023-01-26T09:20:18.169Z,10.63
2023-01-26T09:21:18.145Z,11.03
2023-01-26T09:22:18.157Z,10.48
2023-01-26T09:23:18.183Z,10.04
2023-01-26T09:24:18.285Z,14.16
2023-01-26T09:25:18.207Z,16.06
2023-01-26T09:26:18.199Z,15.28
2023-01-26T09:27:18.246Z,14.13
2023-01-26T09:28:18.284Z,15.67
2023-01-26T09:29:18.352Z,14.14
2023-01-26T09:30:18.449Z,13.20
2023-01-26T09:31:18.451Z,13.35
2023-01-26T09:32:18.383Z,14.84
2023-01-26T09:33:20.177Z,14.64
2023-01-26T09:34:18.581Z,13.36
2023-01-26T09:35:18.988Z,13.93
2023-01-26T09:36:19.187Z,13.40
2023-01-26T09:37:18.525Z,14.10
2023-01-26T09:38:18.545Z,14.27
2023-01-26T09:39:18.550Z,13.80
2023-01-26T09:40:18.553Z,12.43
2023-01-26T09:41:18.591Z,12.64
2023-01-26T09:42:18.615Z,13.35
2023-01-26T09:43:18.676Z,13.86
2023-01-26T09:44:18.736Z,13.34
2023-01-26T09:45:18.784Z,12.68
2023-01-26T11:51:21.823Z,6.79
2023-01-26T11:52:21.472Z,5.88
2023-01-26T11:53:21.507Z,6.22
2023-01-26T11:54:21.559Z,5.97
2023-01-26T11:55:21.602Z,6.83
2023-01-26T11:56:21.619Z,6.69
2023-01-26T11:57:21.656Z,5.94
2023-01-26T11:58:21.687Z,6.29
2023-01-26T11:59:21.699Z,6.36
2023-01-26T12:00:30.105Z,6.62
2023-01-26T12:02:21.782Z,5.94
2023-01-26T12:03:21.725Z,5.88
2023-01-26T12:05:21.685Z,5.27
2023-01-26T12:11:21.648Z,6.11
2023-01-26T12:12:21.633Z,6.00
2023-01-26T12:13:21.632Z,5.88
2023-01-26T12:14:21.638Z,6.03
2023-01-26T12:15:21.613Z,6.25
2023-01-26T12:16:21.736Z,6.31
2023-01-26T12:17:21.668Z,5.99
2023-01-26T12:18:21.605Z,6.93
2023-01-26T12:19:21.589Z,6.06
2023-01-26T12:20:21.581Z,6.31
2023-01-26T12:21:21.581Z,6.95
2023-01-26T12:22:22.438Z,7.09
2023-01-26T12:23:21.584Z,6.08
2023-01-26T12:24:48.505Z,5.97
2023-01-26T12:25:22.565Z,5.79
2023-01-26T12:26:21.549Z,5.14
2023-01-26T12:27:21.548Z,6.30
2023-01-26T12:28:21.552Z,6.15
2023-01-26T12:29:21.529Z,5.99
2023-01-26T12:30:21.564Z,5.80
2023-01-26T12:31:21.647Z,5.48
2023-01-26T12:32:21.507Z,5.66
2023-01-26T12:33:21.509Z,6.27
2023-01-26T12:34:21.495Z,5.87
2023-01-26T12:35:21.483Z,5.74
2023-01-26T12:36:21.570Z,6.11
2023-01-26T12:37:21.464Z,6.38
2023-01-26T12:38:21.465Z,5.85
2023-01-26T12:39:22.328Z,5.12
2023-01-26T12:40:21.444Z,6.20
2023-01-26T12:41:21.430Z,6.45
2023-01-26T12:42:21.425Z,5.85
2023-01-26T12:43:21.419Z,5.55
2023-01-26T12:44:21.423Z,5.94
2023-01-26T12:45:21.502Z,6.14
2023-01-26T12:55:21.414Z,5.68
2023-01-26T12:56:21.436Z,6.42
2023-01-26T12:57:21.514Z,6.19
2023-01-26T12:58:21.507Z,5.29
2023-01-26T12:59:38.561Z,5.58
2023-01-26T13:00:22.429Z,6.39
2023-01-26T13:01:21.459Z,5.70
2023-01-26T13:11:21.841Z,5.91
2023-01-26T13:23:21.423Z,5.98
2023-01-26T13:24:21.537Z,5.67
2023-01-26T13:25:21.453Z,5.45
2023-01-26T13:26:21.490Z,5.33
2023-01-26T13:27:21.490Z,5.71
2023-01-26T13:28:21.501Z,6.58
2023-01-26T13:29:21.535Z,6.21
2023-01-26T13:30:21.569Z,6.32
2023-01-26T13:31:21.585Z,5.71
2023-01-26T13:32:21.582Z,6.20
2023-01-26T13:33:21.602Z,6.17
2023-01-26T13:34:21.624Z,5.81
2023-01-26T13:35:21.852Z,5.12
2023-01-26T13:36:21.641Z,5.80
2023-01-26T13:37:21.717Z,6.00
2023-01-26T13:38:21.662Z,5.21
2023-01-26T13:39:21.680Z,5.27
2023-01-26T13:40:21.712Z,5.21
2023-01-26T13:41:21.731Z,5.25
2023-01-26T13:42:21.712Z,5.80
2023-01-26T13:43:27.185Z,5.53
2023-01-26T13:45:21.772Z,5.14
2023-01-26T13:46:21.797Z,5.52
2023-01-26T13:47:21.759Z,5.51
2023-01-26T13:48:21.756Z,5.24
2023-01-26T13:49:21.747Z,5.78
2023-01-26T13:50:21.806Z,5.20
2023-01-26T13:51:21.738Z,5.52
2023-01-26T13:57:21.706Z,5.47
2023-01-26T13:58:21.693Z,5.75
2023-01-26T14:00:21.672Z,5.40
2023-01-26T14:01:21.716Z,5.69
2023-01-26T14:02:21.749Z,5.66
2023-01-26T14:03:21.656Z,4.90
2023-01-26T14:04:21.761Z,5.20
2023-01-26T14:07:21.621Z,6.07
2023-01-26T14:08:21.616Z,6.34
2023-01-26T14:09:21.613Z,5.56
2023-01-26T14:10:22.627Z,5.54
2023-01-26T14:11:21.683Z,5.16
2023-01-26T14:12:21.592Z,5.20
2023-01-26T14:13:21.577Z,5.82
2023-01-26T14:14:21.570Z,5.30
2023-01-26T14:15:21.565Z,5.20
2023-01-26T14:16:21.585Z,5.35
2023-01-26T14:17:21.638Z,6.52
2023-01-26T14:18:21.547Z,5.52
2023-01-26T14:19:21.542Z,5.45
2023-01-26T14:20:21.546Z,5.38
2023-01-26T14:21:21.562Z,5.48
2023-01-26T14:22:22.387Z,5.17
2023-01-26T14:23:21.511Z,5.06
2023-01-26T14:24:21.601Z,5.42
2023-01-26T14:25:21.505Z,5.20
2023-01-26T14:26:21.498Z,5.23
2023-01-26T14:27:21.483Z,5.92
2023-01-26T14:28:21.473Z,5.90
2023-01-26T14:29:21.459Z,4.92
2023-01-26T14:30:21.499Z,5.71
2023-01-26T14:31:21.459Z,5.69
2023-01-26T14:32:21.454Z,5.45
2023-01-26T14:33:21.444Z,5.28
2023-01-26T14:34:21.479Z,5.35
2023-01-26T14:35:21.481Z,5.37
2023-01-26T14:36:21.514Z,5.32
2023-01-26T14:37:21.509Z,5.07
2023-01-26T14:38:21.518Z,5.47
2023-01-26T14:39:21.547Z,5.67
2023-01-26T14:40:21.570Z,5.97
2023-01-26T14:41:21.594Z,5.92
2023-01-26T14:42:21.616Z,5.51
2023-01-26T14:43:21.671Z,4.89
2023-01-26T14:44:21.655Z,5.45
2023-01-26T14:45:21.683Z,5.61
2023-01-26T14:46:21.762Z,4.83
2023-01-26T14:47:21.708Z,4.70
2023-01-26T14:48:21.730Z,6.05
2023-01-26T14:49:21.757Z,6.06
2023-01-26T14:50:21.775Z,5.59
2023-01-26T14:51:21.945Z,5.35
2023-01-26T14:52:21.799Z,5.07
2023-01-26T14:53:21.976Z,5.27
2023-01-26T14:54:21.899Z,4.89
2023-01-26T14:55:22.878Z,4.97
2023-01-26T14:56:21.931Z,5.51
2023-01-26T14:57:21.937Z,4.98
2023-01-26T14:58:22.044Z,5.81
2023-01-26T14:59:22.045Z,5.58
2023-01-26T15:00:22.029Z,4.85
2023-01-26T15:01:22.024Z,5.08
2023-01-26T15:02:22.152Z,5.22
2023-01-26T15:03:22.055Z,6.06
2023-01-26T15:04:22.077Z,5.32
2023-01-26T15:05:22.097Z,4.96
2023-01-26T15:06:22.877Z,4.98
2023-01-26T15:07:22.148Z,5.52
2023-01-26T15:08:22.166Z,5.50
2023-01-26T15:09:22.203Z,4.89
2023-01-26T15:10:22.215Z,5.26
2023-01-26T15:11:22.240Z,5.00
2023-01-26T15:12:22.396Z,5.62
2023-01-26T15:13:22.295Z,5.36
2023-01-26T15:14:22.314Z,4.92
2023-01-26T15:15:22.347Z,5.23
2023-01-26T15:16:22.421Z,5.26
2023-01-26T15:17:22.385Z,5.30
2023-01-26T15:18:22.407Z,4.99
2023-01-26T15:19:22.420Z,4.69
2023-01-26T15:20:22.451Z,5.47
2023-01-26T15:21:23.420Z,5.12
2023-01-26T15:22:22.498Z,5.23
2023-01-26T15:23:23.484Z,4.91
2023-01-26T15:24:22.547Z,5.04
2023-01-26T15:25:22.483Z,5.08
2023-01-26T15:26:22.467Z,5.06
2023-01-26T15:27:22.456Z,5.56
2023-01-26T15:28:22.450Z,5.31
2023-01-26T15:29:22.443Z,4.91
2023-01-26T15:30:22.443Z,4.97
2023-01-26T15:31:22.564Z,6.01
2023-01-26T15:32:22.431Z,4.96
2023-01-26T15:33:22.424Z,5.68
2023-01-26T15:34:22.424Z,5.07
2023-01-26T15:35:22.413Z,5.19
2023-01-26T15:36:22.394Z,4.97
2023-01-26T15:37:22.895Z,5.47
2023-01-26T15:38:22.396Z,5.37
2023-01-26T15:39:22.459Z,4.82
2023-01-26T15:40:22.400Z,5.27
2023-01-26T15:41:22.378Z,5.29
2023-01-26T15:42:22.374Z,4.82
2023-01-26T15:43:22.378Z,5.13
2023-01-26T15:44:22.416Z,5.31
2023-01-26T15:45:22.423Z,5.58
2023-01-26T15:46:22.472Z,5.27
2023-01-26T15:47:22.494Z,5.29
2023-01-26T15:48:22.525Z,5.17
2023-01-26T15:49:22.544Z,5.16
2023-01-26T15:50:28.091Z,4.98
2023-01-26T15:51:23.564Z,4.79
2023-01-26T15:52:22.564Z,5.25
2023-01-26T15:53:22.567Z,5.96
2023-01-26T15:54:22.546Z,4.54
2023-01-26T15:55:22.544Z,5.24
2023-01-26T15:56:22.535Z,5.58
2023-01-26T15:57:22.934Z,5.09
2023-01-26T15:58:22.528Z,5.47
2023-01-26T15:59:22.571Z,4.98
2023-01-26T16:00:22.520Z,5.65
2023-01-26T16:01:22.496Z,5.01
2023-01-26T16:02:22.532Z,4.39
2023-01-26T16:03:22.682Z,4.76
2023-01-26T16:04:22.592Z,5.27
2023-01-26T16:05:22.643Z,5.51
2023-01-26T16:06:22.685Z,6.05
2023-01-26T16:07:22.720Z,6.34
2023-01-26T16:08:22.793Z,6.27
2023-01-26T16:09:22.851Z,5.68
2023-01-26T16:10:22.899Z,6.00
2023-01-26T16:11:22.963Z,6.26
2023-01-26T16:12:31.565Z,6.32
2023-01-26T16:13:24.013Z,6.91
2023-01-26T16:14:23.002Z,6.09
2023-01-26T16:15:23.055Z,6.24
2023-01-26T16:16:23.092Z,6.11
2023-01-26T16:17:22.985Z,6.26
2023-01-26T16:18:22.984Z,5.83
2023-01-26T16:19:34.771Z,5.44
2023-01-26T16:20:23.967Z,5.57
2023-01-26T16:21:22.948Z,5.51
2023-01-26T16:22:22.958Z,5.59
2023-01-26T16:23:22.967Z,5.63
2023-01-26T16:24:23.015Z,6.06
2023-01-26T16:25:22.925Z,5.71
2023-01-26T16:26:22.927Z,5.61
2023-01-26T16:27:22.916Z,6.39
2023-01-26T16:28:22.946Z,5.88
2023-01-26T16:29:23.011Z,6.18
2023-01-26T16:30:23.048Z,5.78
2023-01-26T16:31:23.268Z,5.75
2023-01-26T16:32:23.168Z,6.43
2023-01-26T16:33:23.223Z,5.72
2023-01-26T16:34:23.303Z,6.10
2023-01-26T16:35:23.361Z,5.80
2023-01-26T16:36:23.420Z,6.02
2023-01-26T16:37:23.552Z,6.01
2023-01-26T16:38:23.522Z,5.48
2023-01-26T16:39:23.591Z,6.37
2023-01-26T16:40:23.649Z,5.42
2023-01-26T16:41:23.716Z,5.93
2023-01-26T16:42:23.772Z,6.24
2023-01-26T16:43:24.323Z,5.98
2023-01-26T16:44:23.892Z,6.43
2023-01-26T16:45:23.944Z,6.22
2023-01-26T16:46:24.012Z,5.85
2023-01-26T16:47:24.086Z,5.39
2023-01-26T16:48:24.145Z,6.21
2023-01-26T16:49:24.188Z,5.75
2023-01-26T16:50:24.241Z,5.76
2023-01-26T16:51:24.300Z,6.13
2023-01-26T16:52:24.360Z,6.41
2023-01-26T16:53:24.419Z,5.48
2023-01-26T17:26:25.404Z,5.73
2023-01-26T17:27:25.441Z,6.36
2023-01-26T17:28:25.451Z,6.15
2023-01-26T17:29:25.467Z,5.80
2023-01-26T17:30:25.547Z,5.92
2023-01-26T17:31:25.594Z,5.94
2023-01-26T17:32:25.577Z,5.91
2023-01-26T17:33:25.580Z,5.54
2023-01-26T17:34:25.617Z,6.02
2023-01-26T17:35:25.717Z,4.85
2023-01-26T17:36:25.658Z,5.36
2023-01-26T17:37:25.781Z,5.82
2023-01-26T17:38:25.710Z,5.07
2023-01-26T17:39:25.742Z,5.96
2023-01-26T17:40:25.799Z,5.82
2023-01-26T17:41:25.815Z,6.68
2023-01-26T17:42:25.862Z,5.51
2023-01-26T17:43:25.838Z,5.70
2023-01-26T17:44:25.857Z,6.11
2023-01-26T17:45:25.880Z,6.48
2023-01-26T17:46:25.878Z,6.24
2023-01-26T17:47:25.884Z,5.39
2023-01-26T17:48:25.872Z,6.04
2023-01-26T17:49:25.872Z,5.65
2023-01-26T17:50:25.891Z,5.57
2023-01-26T17:51:25.916Z,6.41
2023-01-26T17:52:25.906Z,6.10
2023-01-26T17:53:25.921Z,5.92
2023-01-26T17:54:25.922Z,5.80
2023-01-26T17:55:25.928Z,6.21
2023-01-26T17:56:25.932Z,6.03
2023-01-26T17:57:25.931Z,5.80
2023-01-26T17:58:25.948Z,5.39
2023-01-26T17:59:25.971Z,5.18
2023-01-26T18:00:25.988Z,5.80
2023-01-26T18:01:26.052Z,6.06
2023-01-26T18:02:26.114Z,5.55
2023-01-26T18:03:26.017Z,5.66
2023-01-26T18:04:26.078Z,5.80
2023-01-26T18:05:26.066Z,6.36
2023-01-26T18:06:26.017Z,5.88
2023-01-26T18:07:26.024Z,5.70
2023-01-26T18:08:26.036Z,5.62
2023-01-26T18:09:26.045Z,6.29
2023-01-26T18:10:26.051Z,6.35
2023-01-26T18:11:26.090Z,5.74
2023-01-26T18:12:26.110Z,5.32
2023-01-26T18:13:26.117Z,6.18
2023-01-26T18:14:26.461Z,5.64
2023-01-26T18:15:26.147Z,6.23
2023-01-26T18:16:26.202Z,6.09
2023-01-26T18:17:26.169Z,5.69
2023-01-26T18:18:26.177Z,5.56
2023-01-26T18:19:26.226Z,5.30
2023-01-26T18:20:26.180Z,6.19
2023-01-26T18:21:26.184Z,5.65
2023-01-26T18:22:26.189Z,4.89
2023-01-26T18:23:26.179Z,5.93
2023-01-26T18:24:26.200Z,5.12
2023-01-26T18:25:26.181Z,6.02
2023-01-26T18:26:26.197Z,6.06
2023-01-26T18:27:26.990Z,5.14
2023-01-26T18:28:26.949Z,5.70
2023-01-26T18:29:26.194Z,5.92
2023-01-26T18:30:26.197Z,7.08
2023-01-26T18:31:26.311Z,5.47
2023-01-26T18:32:26.223Z,5.20
2023-01-26T18:33:26.304Z,5.50
2023-01-26T18:34:26.232Z,5.60
2023-01-26T18:35:26.257Z,5.99
2023-01-26T23:00:27.452Z,4.93
2023-01-26T23:01:27.494Z,5.30
2023-01-26T23:02:27.470Z,4.82
2023-01-26T23:03:27.476Z,5.41
2023-01-26T23:04:27.533Z,5.02
2023-01-26T23:05:27.515Z,4.93
2023-01-26T23:06:27.528Z,5.38
2023-01-26T23:07:27.522Z,5.72
2023-01-26T23:08:27.537Z,5.08
2023-01-26T23:09:27.622Z,5.25
2023-01-26T23:10:27.558Z,5.38
2023-01-26T23:11:27.599Z,5.01
2023-01-26T23:12:27.589Z,4.73
2023-01-26T23:13:27.680Z,5.24
2023-01-26T23:14:27.687Z,4.82
2023-01-26T23:15:27.619Z,5.00
2023-01-26T23:16:27.714Z,4.60
2023-01-26T23:17:27.651Z,5.08
2023-01-26T23:18:27.668Z,5.86
2023-01-26T23:19:27.694Z,4.60
2023-01-26T23:20:27.688Z,5.05
2023-01-26T23:22:27.702Z,5.25
2023-01-26T23:23:27.723Z,5.31
2023-01-26T23:24:27.776Z,5.37
2023-01-26T23:25:27.736Z,5.15
2023-01-26T23:26:27.754Z,4.50
2023-01-26T23:27:27.765Z,5.00
2023-01-26T23:28:27.770Z,5.08
2023-01-26T23:29:27.790Z,5.26
2023-01-26T23:30:27.790Z,5.26
2023-01-26T23:31:27.845Z,5.05
